sensor_id;sensor_type;location;lat;lon;timestamp;temperature;humidity
3792;DHT22;1911;53.768;11.474;2023-09-19T00:00:19;19.00;99.90
3792;DHT22;1911;53.768;11.474;2023-09-19T00:02:51;19.00;99.90
3792;DHT22;1911;53.768;11.474;2023-09-19T00:05:17;18.90;99.90
3792;DHT22;1911;53.768;11.474;2023-09-19T00:07:42;18.80;99.90
3792;DHT22;1911;53.768;11.474;2023-09-19T00:10:08;18.90;99.90
3792;DHT22;1911;53.768;11.474;2023-09-19T00:12:35;18.70;99.90
3792;DHT22;1911;53.768;11.474;2023-09-19T00:15:00;18.60;99.90
3792;DHT22;1911;53.768;11.474;2023-09-19T00:17:27;18.50;99.90
3792;DHT22;1911;53.768;11.474;2023-09-19T00:19:55;18.50;99.90
3792;DHT22;1911;53.768;11.474;2023-09-19T00:22:21;18.40;99.90
3792;DHT22;1911;53.768;11.474;2023-09-19T00:24:46;18.30;99.90
3792;DHT22;1911;53.768;11.474;2023-09-19T00:27:12;18.30;99.90
3792;DHT22;1911;53.768;11.474;2023-09-19T00:29:38;18.30;99.90
3792;DHT22;1911;53.768;11.474;2023-09-19T00:32:06;18.30;99.90
3792;DHT22;1911;53.768;11.474;2023-09-19T00:34:32;18.30;99.90
3792;DHT22;1911;53.768;11.474;2023-09-19T00:36:59;18.30;99.90
3792;DHT22;1911;53.768;11.474;2023-09-19T00:39:25;18.20;99.90
3792;DHT22;1911;53.768;11.474;2023-09-19T00:41:51;18.20;99.90
3792;DHT22;1911;53.768;11.474;2023-09-19T00:44:16;18.10;99.90
3792;DHT22;1911;53.768;11.474;2023-09-19T00:46:43;18.10;99.90
3792;DHT22;1911;53.768;11.474;2023-09-19T00:49:09;18.10;99.90
3792;DHT22;1911;53.768;11.474;2023-09-19T00:51:35;18.00;99.90
3792;DHT22;1911;53.768;11.474;2023-09-19T00:54:02;18.00;99.90
3792;DHT22;1911;53.768;11.474;2023-09-19T00:56:28;18.00;99.90
3792;DHT22;1911;53.768;11.474;2023-09-19T00:58:54;18.00;99.90
3792;DHT22;1911;53.768;11.474;2023-09-19T01:01:20;17.90;99.90
3792;DHT22;1911;53.768;11.474;2023-09-19T01:03:46;17.90;99.90
3792;DHT22;1911;53.768;11.474;2023-09-19T01:06:11;17.90;99.90
3792;DHT22;1911;53.768;11.474;2023-09-19T01:08:37;17.90;99.90
3792;DHT22;1911;53.768;11.474;2023-09-19T01:16:45;17.70;99.90
3792;DHT22;1911;53.768;11.474;2023-09-19T01:30:29;17.50;99.90
3792;DHT22;1911;53.768;11.474;2023-09-19T01:32:58;17.40;99.90
3792;DHT22;1911;53.768;11.474;2023-09-19T01:35:25;17.50;99.90
3792;DHT22;1911;53.768;11.474;2023-09-19T01:37:51;17.50;99.90
3792;DHT22;1911;53.768;11.474;2023-09-19T01:40:20;17.50;99.90
3792;DHT22;1911;53.768;11.474;2023-09-19T01:43:03;17.60;99.90
3792;DHT22;1911;53.768;11.474;2023-09-19T01:45:59;17.50;99.90
3792;DHT22;1911;53.768;11.474;2023-09-19T01:51:07;17.40;99.90
3792;DHT22;1911;53.768;11.474;2023-09-19T01:56:19;17.30;99.90
3792;DHT22;1911;53.768;11.474;2023-09-19T01:58:49;17.30;99.90
3792;DHT22;1911;53.768;11.474;2023-09-19T02:01:20;17.30;99.90
3792;DHT22;1911;53.768;11.474;2023-09-19T02:03:47;17.30;99.90
3792;DHT22;1911;53.768;11.474;2023-09-19T02:06:18;17.30;99.90
3792;DHT22;1911;53.768;11.474;2023-09-19T02:08:45;17.20;99.90
3792;DHT22;1911;53.768;11.474;2023-09-19T02:11:11;17.20;99.90
3792;DHT22;1911;53.768;11.474;2023-09-19T02:13:37;17.30;99.90
3792;DHT22;1911;53.768;11.474;2023-09-19T02:16:03;17.30;99.90
3792;DHT22;1911;53.768;11.474;2023-09-19T02:18:30;17.30;99.90
3792;DHT22;1911;53.768;11.474;2023-09-19T02:20:56;17.30;99.90
3792;DHT22;1911;53.768;11.474;2023-09-19T02:23:24;17.30;99.90
3792;DHT22;1911;53.768;11.474;2023-09-19T02:25:59;17.40;99.90
3792;DHT22;1911;53.768;11.474;2023-09-19T02:28:30;17.40;99.90
3792;DHT22;1911;53.768;11.474;2023-09-19T02:30:57;17.40;99.90
3792;DHT22;1911;53.768;11.474;2023-09-19T02:33:23;17.40;99.90
3792;DHT22;1911;53.768;11.474;2023-09-19T02:35:49;17.30;99.90
3792;DHT22;1911;53.768;11.474;2023-09-19T02:38:15;17.40;99.90
3792;DHT22;1911;53.768;11.474;2023-09-19T02:40:46;17.40;99.90
3792;DHT22;1911;53.768;11.474;2023-09-19T02:43:12;17.30;99.90
3792;DHT22;1911;53.768;11.474;2023-09-19T02:45:37;17.20;99.90
3792;DHT22;1911;53.768;11.474;2023-09-19T02:48:03;17.20;99.90
3792;DHT22;1911;53.768;11.474;2023-09-19T02:50:29;17.20;99.90
3792;DHT22;1911;53.768;11.474;2023-09-19T02:52:55;17.20;99.90
3792;DHT22;1911;53.768;11.474;2023-09-19T02:55:21;17.20;99.90
3792;DHT22;1911;53.768;11.474;2023-09-19T02:57:47;17.10;99.90
3792;DHT22;1911;53.768;11.474;2023-09-19T03:00:14;17.10;99.90
3792;DHT22;1911;53.768;11.474;2023-09-19T03:02:40;17.10;99.90
3792;DHT22;1911;53.768;11.474;2023-09-19T03:05:07;17.10;99.90
3792;DHT22;1911;53.768;11.474;2023-09-19T03:07:33;17.00;99.90
3792;DHT22;1911;53.768;11.474;2023-09-19T03:09:59;17.00;99.90
3792;DHT22;1911;53.768;11.474;2023-09-19T03:12:26;16.90;99.90
3792;DHT22;1911;53.768;11.474;2023-09-19T03:14:51;16.80;99.90
3792;DHT22;1911;53.768;11.474;2023-09-19T03:17:17;16.80;99.90
3792;DHT22;1911;53.768;11.474;2023-09-19T03:19:45;16.70;99.90
3792;DHT22;1911;53.768;11.474;2023-09-19T03:22:10;16.70;99.90
3792;DHT22;1911;53.768;11.474;2023-09-19T03:24:36;16.70;99.90
3792;DHT22;1911;53.768;11.474;2023-09-19T03:27:03;16.60;99.90
3792;DHT22;1911;53.768;11.474;2023-09-19T03:29:29;16.60;99.90
3792;DHT22;1911;53.768;11.474;2023-09-19T03:31:55;16.50;99.90
3792;DHT22;1911;53.768;11.474;2023-09-19T03:34:21;16.50;99.90
3792;DHT22;1911;53.768;11.474;2023-09-19T03:36:46;16.50;99.90
3792;DHT22;1911;53.768;11.474;2023-09-19T03:39:12;16.40;99.90
3792;DHT22;1911;53.768;11.474;2023-09-19T03:41:41;16.50;99.90
3792;DHT22;1911;53.768;11.474;2023-09-19T03:44:07;16.50;99.90
3792;DHT22;1911;53.768;11.474;2023-09-19T03:46:32;16.40;99.90
3792;DHT22;1911;53.768;11.474;2023-09-19T03:48:59;16.50;99.90
3792;DHT22;1911;53.768;11.474;2023-09-19T03:51:25;16.40;99.90
3792;DHT22;1911;53.768;11.474;2023-09-19T03:53:51;16.40;99.90
3792;DHT22;1911;53.768;11.474;2023-09-19T03:56:16;16.40;99.90
3792;DHT22;1911;53.768;11.474;2023-09-19T03:58:42;16.40;99.90
3792;DHT22;1911;53.768;11.474;2023-09-19T04:01:07;16.40;99.90
3792;DHT22;1911;53.768;11.474;2023-09-19T04:03:36;16.30;99.90
3792;DHT22;1911;53.768;11.474;2023-09-19T04:06:21;16.30;99.90
3792;DHT22;1911;53.768;11.474;2023-09-19T04:08:47;16.30;99.90
3792;DHT22;1911;53.768;11.474;2023-09-19T04:11:13;16.20;99.90
3792;DHT22;1911;53.768;11.474;2023-09-19T04:13:39;16.20;99.90
3792;DHT22;1911;53.768;11.474;2023-09-19T04:16:05;16.20;99.90
3792;DHT22;1911;53.768;11.474;2023-09-19T04:18:32;16.10;99.90
3792;DHT22;1911;53.768;11.474;2023-09-19T04:20:59;16.10;99.90
3792;DHT22;1911;53.768;11.474;2023-09-19T04:23:28;16.00;99.90
3792;DHT22;1911;53.768;11.474;2023-09-19T04:25:53;16.00;99.90
3792;DHT22;1911;53.768;11.474;2023-09-19T04:28:19;16.00;99.90
3792;DHT22;1911;53.768;11.474;2023-09-19T04:30:45;16.00;99.90
3792;DHT22;1911;53.768;11.474;2023-09-19T04:33:10;16.00;99.90
3792;DHT22;1911;53.768;11.474;2023-09-19T04:35:39;16.00;99.90
3792;DHT22;1911;53.768;11.474;2023-09-19T04:38:07;16.10;99.90
3792;DHT22;1911;53.768;11.474;2023-09-19T04:40:33;16.10;99.90
3792;DHT22;1911;53.768;11.474;2023-09-19T04:42:59;16.00;99.90
3792;DHT22;1911;53.768;11.474;2023-09-19T04:45:28;16.00;99.90
3792;DHT22;1911;53.768;11.474;2023-09-19T04:47:54;16.10;99.90
3792;DHT22;1911;53.768;11.474;2023-09-19T04:50:20;16.10;99.90
3792;DHT22;1911;53.768;11.474;2023-09-19T04:52:51;16.00;99.90
3792;DHT22;1911;53.768;11.474;2023-09-19T04:55:18;16.10;99.90
3792;DHT22;1911;53.768;11.474;2023-09-19T04:57:48;16.00;99.90
3792;DHT22;1911;53.768;11.474;2023-09-19T05:00:16;16.10;99.90
3792;DHT22;1911;53.768;11.474;2023-09-19T05:02:42;16.00;99.90
3792;DHT22;1911;53.768;11.474;2023-09-19T05:05:09;16.00;99.90
3792;DHT22;1911;53.768;11.474;2023-09-19T05:07:41;16.00;99.90
3792;DHT22;1911;53.768;11.474;2023-09-19T05:10:07;16.00;99.90
3792;DHT22;1911;53.768;11.474;2023-09-19T05:12:34;16.00;99.90
3792;DHT22;1911;53.768;11.474;2023-09-19T05:15:00;15.90;99.90
3792;DHT22;1911;53.768;11.474;2023-09-19T05:17:27;16.00;99.90
3792;DHT22;1911;53.768;11.474;2023-09-19T05:19:52;16.00;99.90
3792;DHT22;1911;53.768;11.474;2023-09-19T05:22:18;16.10;99.90
3792;DHT22;1911;53.768;11.474;2023-09-19T05:24:44;16.10;99.90
3792;DHT22;1911;53.768;11.474;2023-09-19T05:27:16;16.20;99.90
3792;DHT22;1911;53.768;11.474;2023-09-19T05:29:45;16.30;99.90
3792;DHT22;1911;53.768;11.474;2023-09-19T05:32:11;16.30;99.90
3792;DHT22;1911;53.768;11.474;2023-09-19T05:34:37;16.20;99.90
3792;DHT22;1911;53.768;11.474;2023-09-19T05:37:04;16.10;99.90
3792;DHT22;1911;53.768;11.474;2023-09-19T05:39:30;16.10;99.90
3792;DHT22;1911;53.768;11.474;2023-09-19T05:41:56;16.00;99.90
3792;DHT22;1911;53.768;11.474;2023-09-19T05:44:22;16.00;99.90
3792;DHT22;1911;53.768;11.474;2023-09-19T05:46:48;15.90;99.90
3792;DHT22;1911;53.768;11.474;2023-09-19T05:49:15;15.90;99.90
3792;DHT22;1911;53.768;11.474;2023-09-19T05:51:41;15.90;99.90
3792;DHT22;1911;53.768;11.474;2023-09-19T05:54:06;15.80;99.90
3792;DHT22;1911;53.768;11.474;2023-09-19T05:56:32;15.70;99.90
3792;DHT22;1911;53.768;11.474;2023-09-19T05:58:58;15.60;99.90
3792;DHT22;1911;53.768;11.474;2023-09-19T06:01:25;15.70;99.90
3792;DHT22;1911;53.768;11.474;2023-09-19T06:03:50;15.60;99.90
3792;DHT22;1911;53.768;11.474;2023-09-19T06:06:18;15.60;99.90
3792;DHT22;1911;53.768;11.474;2023-09-19T06:08:44;15.60;99.90
3792;DHT22;1911;53.768;11.474;2023-09-19T06:11:10;15.60;99.90
3792;DHT22;1911;53.768;11.474;2023-09-19T06:13:36;15.60;99.90
3792;DHT22;1911;53.768;11.474;2023-09-19T06:16:04;15.60;99.90
3792;DHT22;1911;53.768;11.474;2023-09-19T06:18:31;16.00;99.90
3792;DHT22;1911;53.768;11.474;2023-09-19T06:20:59;16.70;99.90
3792;DHT22;1911;53.768;11.474;2023-09-19T06:23:25;17.10;55.00
3792;DHT22;1911;53.768;11.474;2023-09-19T06:25:52;18.10;65.60
3792;DHT22;1911;53.768;11.474;2023-09-19T06:28:19;19.10;1.00
3792;DHT22;1911;53.768;11.474;2023-09-19T06:30:49;20.10;1.00
3792;DHT22;1911;53.768;11.474;2023-09-19T06:33:15;19.70;1.00
3792;DHT22;1911;53.768;11.474;2023-09-19T06:35:41;19.40;1.00
3792;DHT22;1911;53.768;11.474;2023-09-19T06:38:07;20.00;1.00
3792;DHT22;1911;53.768;11.474;2023-09-19T06:40:34;20.50;1.00
3792;DHT22;1911;53.768;11.474;2023-09-19T06:43:00;20.80;1.00
3792;DHT22;1911;53.768;11.474;2023-09-19T06:45:27;21.20;99.90
3792;DHT22;1911;53.768;11.474;2023-09-19T06:47:53;21.40;99.90
3792;DHT22;1911;53.768;11.474;2023-09-19T06:50:23;21.70;99.90
3792;DHT22;1911;53.768;11.474;2023-09-19T06:52:50;22.20;99.90
3792;DHT22;1911;53.768;11.474;2023-09-19T06:55:17;22.80;99.90
3792;DHT22;1911;53.768;11.474;2023-09-19T06:57:44;23.20;99.90
3792;DHT22;1911;53.768;11.474;2023-09-19T07:00:11;23.40;93.50
3792;DHT22;1911;53.768;11.474;2023-09-19T07:02:59;23.60;1.00
3792;DHT22;1911;53.768;11.474;2023-09-19T07:05:30;23.40;1.00
3792;DHT22;1911;53.768;11.474;2023-09-19T07:08:00;22.90;1.00
3792;DHT22;1911;53.768;11.474;2023-09-19T07:10:27;23.60;1.00
3792;DHT22;1911;53.768;11.474;2023-09-19T07:13:00;23.30;1.00
3792;DHT22;1911;53.768;11.474;2023-09-19T07:15:27;23.80;1.00
3792;DHT22;1911;53.768;11.474;2023-09-19T07:17:54;23.40;1.00
3792;DHT22;1911;53.768;11.474;2023-09-19T07:20:22;23.50;1.00
3792;DHT22;1911;53.768;11.474;2023-09-19T07:22:49;23.20;1.00
3792;DHT22;1911;53.768;11.474;2023-09-19T07:25:16;22.80;1.00
3792;DHT22;1911;53.768;11.474;2023-09-19T07:27:42;22.10;1.00
3792;DHT22;1911;53.768;11.474;2023-09-19T07:30:09;21.40;1.00
3792;DHT22;1911;53.768;11.474;2023-09-19T07:32:35;21.00;1.00
3792;DHT22;1911;53.768;11.474;2023-09-19T07:35:04;21.30;1.00
3792;DHT22;1911;53.768;11.474;2023-09-19T07:37:31;20.80;1.00
3792;DHT22;1911;53.768;11.474;2023-09-19T07:40:02;21.30;1.00
3792;DHT22;1911;53.768;11.474;2023-09-19T07:42:36;22.10;1.00
3792;DHT22;1911;53.768;11.474;2023-09-19T07:45:07;22.10;1.00
3792;DHT22;1911;53.768;11.474;2023-09-19T07:47:33;21.60;1.00
3792;DHT22;1911;53.768;11.474;2023-09-19T07:50:00;20.80;1.00
3792;DHT22;1911;53.768;11.474;2023-09-19T07:52:28;19.90;1.00
3792;DHT22;1911;53.768;11.474;2023-09-19T07:54:54;19.30;1.00
3792;DHT22;1911;53.768;11.474;2023-09-19T07:57:20;19.20;99.90
3792;DHT22;1911;53.768;11.474;2023-09-19T07:59:46;19.80;99.90
3792;DHT22;1911;53.768;11.474;2023-09-19T08:02:12;20.70;5.90
3792;DHT22;1911;53.768;11.474;2023-09-19T08:04:44;21.00;1.90
3792;DHT22;1911;53.768;11.474;2023-09-19T08:07:12;20.70;1.00
3792;DHT22;1911;53.768;11.474;2023-09-19T08:09:39;20.20;1.00
3792;DHT22;1911;53.768;11.474;2023-09-19T08:12:06;19.70;99.90
3792;DHT22;1911;53.768;11.474;2023-09-19T08:14:33;19.20;1.00
3792;DHT22;1911;53.768;11.474;2023-09-19T08:16:59;18.60;1.00
3792;DHT22;1911;53.768;11.474;2023-09-19T08:19:26;18.20;1.00
3792;DHT22;1911;53.768;11.474;2023-09-19T08:21:57;17.90;99.90
3792;DHT22;1911;53.768;11.474;2023-09-19T08:24:27;18.00;1.00
3792;DHT22;1911;53.768;11.474;2023-09-19T08:26:57;17.70;1.00
3792;DHT22;1911;53.768;11.474;2023-09-19T08:29:23;18.10;1.00
3792;DHT22;1911;53.768;11.474;2023-09-19T08:31:56;17.90;99.90
3792;DHT22;1911;53.768;11.474;2023-09-19T08:34:23;18.40;1.00
3792;DHT22;1911;53.768;11.474;2023-09-19T08:36:53;18.60;1.00
3792;DHT22;1911;53.768;11.474;2023-09-19T08:39:22;18.20;99.90
3792;DHT22;1911;53.768;11.474;2023-09-19T08:41:48;18.20;99.90
3792;DHT22;1911;53.768;11.474;2023-09-19T08:44:14;17.80;1.00
3792;DHT22;1911;53.768;11.474;2023-09-19T08:46:41;17.90;1.00
3792;DHT22;1911;53.768;11.474;2023-09-19T08:49:28;18.00;1.00
3792;DHT22;1911;53.768;11.474;2023-09-19T08:52:18;17.80;1.00
3792;DHT22;1911;53.768;11.474;2023-09-19T08:54:48;17.50;99.90
3792;DHT22;1911;53.768;11.474;2023-09-19T08:57:15;17.60;1.00
3792;DHT22;1911;53.768;11.474;2023-09-19T08:59:50;17.80;99.90
3792;DHT22;1911;53.768;11.474;2023-09-19T09:02:17;18.10;1.00
3792;DHT22;1911;53.768;11.474;2023-09-19T09:04:45;18.30;99.90
3792;DHT22;1911;53.768;11.474;2023-09-19T09:07:12;18.50;99.90
3792;DHT22;1911;53.768;11.474;2023-09-19T09:09:45;18.70;99.90
3792;DHT22;1911;53.768;11.474;2023-09-19T09:12:15;18.60;1.00
3792;DHT22;1911;53.768;11.474;2023-09-19T09:14:45;18.60;1.00
3792;DHT22;1911;53.768;11.474;2023-09-19T09:17:11;18.40;1.00
3792;DHT22;1911;53.768;11.474;2023-09-19T09:19:37;18.30;1.00
3792;DHT22;1911;53.768;11.474;2023-09-19T09:22:10;18.30;1.00
3792;DHT22;1911;53.768;11.474;2023-09-19T09:24:37;18.00;1.00
3792;DHT22;1911;53.768;11.474;2023-09-19T09:27:05;17.80;1.00
3792;DHT22;1911;53.768;11.474;2023-09-19T09:29:45;17.90;99.90
3792;DHT22;1911;53.768;11.474;2023-09-19T09:34:49;17.70;1.00
3792;DHT22;1911;53.768;11.474;2023-09-19T09:37:19;17.90;99.90
3792;DHT22;1911;53.768;11.474;2023-09-19T09:39:52;17.90;99.90
3792;DHT22;1911;53.768;11.474;2023-09-19T09:42:37;17.60;1.00
3792;DHT22;1911;53.768;11.474;2023-09-19T09:45:15;17.60;50.00
3792;DHT22;1911;53.768;11.474;2023-09-19T09:47:47;17.60;1.00
3792;DHT22;1911;53.768;11.474;2023-09-19T09:50:33;17.70;1.00
3792;DHT22;1911;53.768;11.474;2023-09-19T09:53:27;17.60;1.00
3792;DHT22;1911;53.768;11.474;2023-09-19T09:58:25;17.40;1.00
3792;DHT22;1911;53.768;11.474;2023-09-19T10:00:58;17.50;99.90
3792;DHT22;1911;53.768;11.474;2023-09-19T10:03:32;17.70;1.00
3792;DHT22;1911;53.768;11.474;2023-09-19T10:06:00;17.90;1.00
3792;DHT22;1911;53.768;11.474;2023-09-19T10:08:27;18.10;1.00
3792;DHT22;1911;53.768;11.474;2023-09-19T10:10:57;18.20;1.00
3792;DHT22;1911;53.768;11.474;2023-09-19T10:13:31;18.30;1.00
3792;DHT22;1911;53.768;11.474;2023-09-19T10:15:59;18.20;99.90
3792;DHT22;1911;53.768;11.474;2023-09-19T10:18:30;17.90;1.00
3792;DHT22;1911;53.768;11.474;2023-09-19T10:20:59;17.90;82.50
3792;DHT22;1911;53.768;11.474;2023-09-19T10:23:28;18.10;1.00
3792;DHT22;1911;53.768;11.474;2023-09-19T10:25:57;18.20;1.00
3792;DHT22;1911;53.768;11.474;2023-09-19T10:28:28;18.30;1.00
3792;DHT22;1911;53.768;11.474;2023-09-19T10:30:55;18.40;99.90
3792;DHT22;1911;53.768;11.474;2023-09-19T10:33:23;18.30;1.00
3792;DHT22;1911;53.768;11.474;2023-09-19T10:35:51;18.40;1.00
3792;DHT22;1911;53.768;11.474;2023-09-19T10:38:24;18.50;1.00
3792;DHT22;1911;53.768;11.474;2023-09-19T10:40:51;18.80;1.00
3792;DHT22;1911;53.768;11.474;2023-09-19T10:43:20;18.60;99.90
3792;DHT22;1911;53.768;11.474;2023-09-19T10:45:48;19.00;1.00
3792;DHT22;1911;53.768;11.474;2023-09-19T10:48:18;19.20;1.00
3792;DHT22;1911;53.768;11.474;2023-09-19T10:51:18;19.10;99.90
3792;DHT22;1911;53.768;11.474;2023-09-19T10:53:55;19.20;1.00
3792;DHT22;1911;53.768;11.474;2023-09-19T10:56:30;19.00;99.90
3792;DHT22;1911;53.768;11.474;2023-09-19T10:59:07;18.80;21.90
3792;DHT22;1911;53.768;11.474;2023-09-19T11:04:28;19.00;1.00
3792;DHT22;1911;53.768;11.474;2023-09-19T11:07:10;19.10;99.90
3792;DHT22;1911;53.768;11.474;2023-09-19T11:15:07;18.90;26.00
3792;DHT22;1911;53.768;11.474;2023-09-19T11:17:40;18.80;1.00
3792;DHT22;1911;53.768;11.474;2023-09-19T11:30:45;19.60;1.00
3792;DHT22;1911;53.768;11.474;2023-09-19T11:43:49;19.70;1.00
3792;DHT22;1911;53.768;11.474;2023-09-19T11:46:16;19.60;1.00
3792;DHT22;1911;53.768;11.474;2023-09-19T11:48:48;19.80;1.00
3792;DHT22;1911;53.768;11.474;2023-09-19T11:51:23;19.90;1.00
3792;DHT22;1911;53.768;11.474;2023-09-19T11:53:52;19.90;1.00
3792;DHT22;1911;53.768;11.474;2023-09-19T11:56:20;19.80;1.00
3792;DHT22;1911;53.768;11.474;2023-09-19T11:58:49;19.70;1.00
3792;DHT22;1911;53.768;11.474;2023-09-19T12:01:29;19.80;99.90
3792;DHT22;1911;53.768;11.474;2023-09-19T12:03:56;19.80;99.90
3792;DHT22;1911;53.768;11.474;2023-09-19T12:06:23;19.90;54.90
3792;DHT22;1911;53.768;11.474;2023-09-19T12:08:49;19.90;99.90
3792;DHT22;1911;53.768;11.474;2023-09-19T12:11:17;19.90;24.50
3792;DHT22;1911;53.768;11.474;2023-09-19T12:13:47;19.90;99.90
3792;DHT22;1911;53.768;11.474;2023-09-19T12:16:18;19.90;99.90
3792;DHT22;1911;53.768;11.474;2023-09-19T12:18:45;19.70;1.00
3792;DHT22;1911;53.768;11.474;2023-09-19T12:21:23;19.60;99.90
3792;DHT22;1911;53.768;11.474;2023-09-19T12:24:12;19.60;99.90
3792;DHT22;1911;53.768;11.474;2023-09-19T12:26:45;19.50;99.90
3792;DHT22;1911;53.768;11.474;2023-09-19T12:29:21;19.50;99.90
3792;DHT22;1911;53.768;11.474;2023-09-19T12:31:54;19.30;1.00
3792;DHT22;1911;53.768;11.474;2023-09-19T12:34:29;19.10;99.90
3792;DHT22;1911;53.768;11.474;2023-09-19T12:37:14;19.20;1.00
3792;DHT22;1911;53.768;11.474;2023-09-19T12:39:53;19.10;99.90
3792;DHT22;1911;53.768;11.474;2023-09-19T12:42:33;19.10;1.00
3792;DHT22;1911;53.768;11.474;2023-09-19T12:45:01;19.10;1.00
3792;DHT22;1911;53.768;11.474;2023-09-19T12:47:28;19.20;1.00
3792;DHT22;1911;53.768;11.474;2023-09-19T12:50:12;19.40;99.90
3792;DHT22;1911;53.768;11.474;2023-09-19T12:52:40;19.40;99.90
3792;DHT22;1911;53.768;11.474;2023-09-19T12:55:06;19.10;99.90
3792;DHT22;1911;53.768;11.474;2023-09-19T12:57:33;19.10;99.90
3792;DHT22;1911;53.768;11.474;2023-09-19T13:00:01;19.20;1.00
3792;DHT22;1911;53.768;11.474;2023-09-19T13:02:27;19.20;99.90
3792;DHT22;1911;53.768;11.474;2023-09-19T13:04:54;19.20;99.90
3792;DHT22;1911;53.768;11.474;2023-09-19T13:07:44;19.40;1.00
3792;DHT22;1911;53.768;11.474;2023-09-19T13:10:10;19.40;99.90
3792;DHT22;1911;53.768;11.474;2023-09-19T13:12:38;19.40;9.50
3792;DHT22;1911;53.768;11.474;2023-09-19T13:15:11;19.30;9.60
3792;DHT22;1911;53.768;11.474;2023-09-19T13:17:49;19.40;99.90
3792;DHT22;1911;53.768;11.474;2023-09-19T13:20:26;19.50;99.90
3792;DHT22;1911;53.768;11.474;2023-09-19T13:22:57;19.60;33.70
3792;DHT22;1911;53.768;11.474;2023-09-19T13:25:33;19.50;99.90
3792;DHT22;1911;53.768;11.474;2023-09-19T13:28:00;19.30;99.90
3792;DHT22;1911;53.768;11.474;2023-09-19T13:30:30;19.20;99.90
3792;DHT22;1911;53.768;11.474;2023-09-19T13:33:10;19.10;1.00
3792;DHT22;1911;53.768;11.474;2023-09-19T13:35:36;19.20;99.90
3792;DHT22;1911;53.768;11.474;2023-09-19T13:38:04;19.20;1.00
3792;DHT22;1911;53.768;11.474;2023-09-19T13:40:29;19.10;99.90
3792;DHT22;1911;53.768;11.474;2023-09-19T13:42:56;19.00;99.90
3792;DHT22;1911;53.768;11.474;2023-09-19T13:45:22;18.90;99.90
3792;DHT22;1911;53.768;11.474;2023-09-19T13:47:50;19.00;99.90
3792;DHT22;1911;53.768;11.474;2023-09-19T13:50:15;19.00;99.90
3792;DHT22;1911;53.768;11.474;2023-09-19T13:52:42;19.00;99.90
3792;DHT22;1911;53.768;11.474;2023-09-19T13:55:08;19.00;99.90
3792;DHT22;1911;53.768;11.474;2023-09-19T13:57:33;19.10;99.90
3792;DHT22;1911;53.768;11.474;2023-09-19T13:59:59;19.20;99.90
3792;DHT22;1911;53.768;11.474;2023-09-19T14:02:25;19.10;99.90
3792;DHT22;1911;53.768;11.474;2023-09-19T14:04:53;19.00;99.90
3792;DHT22;1911;53.768;11.474;2023-09-19T14:07:19;19.00;99.90
3792;DHT22;1911;53.768;11.474;2023-09-19T14:09:45;18.90;1.00
3792;DHT22;1911;53.768;11.474;2023-09-19T14:12:12;18.80;1.00
3792;DHT22;1911;53.768;11.474;2023-09-19T14:14:37;18.90;99.90
3792;DHT22;1911;53.768;11.474;2023-09-19T14:17:04;18.90;41.40
3792;DHT22;1911;53.768;11.474;2023-09-19T14:19:30;19.00;4.30
3792;DHT22;1911;53.768;11.474;2023-09-19T14:21:55;18.90;1.00
3792;DHT22;1911;53.768;11.474;2023-09-19T14:24:22;18.90;99.90
3792;DHT22;1911;53.768;11.474;2023-09-19T14:26:49;18.90;1.00
3792;DHT22;1911;53.768;11.474;2023-09-19T14:29:15;18.90;99.90
3792;DHT22;1911;53.768;11.474;2023-09-19T14:31:41;18.80;1.00
3792;DHT22;1911;53.768;11.474;2023-09-19T14:34:07;18.80;99.90
3792;DHT22;1911;53.768;11.474;2023-09-19T14:36:37;18.80;99.90
3792;DHT22;1911;53.768;11.474;2023-09-19T14:39:04;18.80;99.90
3792;DHT22;1911;53.768;11.474;2023-09-19T14:41:30;18.80;99.90
3792;DHT22;1911;53.768;11.474;2023-09-19T14:43:57;18.80;1.00
3792;DHT22;1911;53.768;11.474;2023-09-19T14:46:23;18.80;1.00
3792;DHT22;1911;53.768;11.474;2023-09-19T14:48:51;18.70;1.00
3792;DHT22;1911;53.768;11.474;2023-09-19T14:51:17;18.70;1.00
3792;DHT22;1911;53.768;11.474;2023-09-19T14:53:44;18.70;1.00
3792;DHT22;1911;53.768;11.474;2023-09-19T14:56:11;18.80;1.00
3792;DHT22;1911;53.768;11.474;2023-09-19T14:58:38;18.70;99.90
3792;DHT22;1911;53.768;11.474;2023-09-19T15:01:09;18.80;1.00
3792;DHT22;1911;53.768;11.474;2023-09-19T15:03:39;18.70;1.00
3792;DHT22;1911;53.768;11.474;2023-09-19T15:06:10;18.70;1.00
3792;DHT22;1911;53.768;11.474;2023-09-19T15:08:40;18.60;1.00
3792;DHT22;1911;53.768;11.474;2023-09-19T15:11:06;18.70;1.00
3792;DHT22;1911;53.768;11.474;2023-09-19T15:13:33;18.60;99.90
3792;DHT22;1911;53.768;11.474;2023-09-19T15:16:07;18.60;99.90
3792;DHT22;1911;53.768;11.474;2023-09-19T15:18:36;18.60;1.00
3792;DHT22;1911;53.768;11.474;2023-09-19T15:21:08;18.60;99.90
3792;DHT22;1911;53.768;11.474;2023-09-19T15:23:36;18.50;99.90
3792;DHT22;1911;53.768;11.474;2023-09-19T15:26:02;18.60;12.90
3792;DHT22;1911;53.768;11.474;2023-09-19T15:28:28;18.50;1.00
3792;DHT22;1911;53.768;11.474;2023-09-19T15:31:03;18.50;1.00
3792;DHT22;1911;53.768;11.474;2023-09-19T15:33:33;18.50;1.00
3792;DHT22;1911;53.768;11.474;2023-09-19T15:36:12;18.50;1.00
3792;DHT22;1911;53.768;11.474;2023-09-19T15:39:00;18.50;99.90
3792;DHT22;1911;53.768;11.474;2023-09-19T15:41:28;18.50;1.00
3792;DHT22;1911;53.768;11.474;2023-09-19T15:43:54;18.50;99.90
3792;DHT22;1911;53.768;11.474;2023-09-19T15:46:20;18.50;1.00
3792;DHT22;1911;53.768;11.474;2023-09-19T15:48:46;18.50;1.00
3792;DHT22;1911;53.768;11.474;2023-09-19T15:51:13;18.50;1.00
3792;DHT22;1911;53.768;11.474;2023-09-19T15:53:51;18.60;99.30
3792;DHT22;1911;53.768;11.474;2023-09-19T15:56:18;18.60;1.00
3792;DHT22;1911;53.768;11.474;2023-09-19T15:58:45;18.60;1.00
3792;DHT22;1911;53.768;11.474;2023-09-19T16:01:11;18.60;60.60
3792;DHT22;1911;53.768;11.474;2023-09-19T16:03:42;18.50;24.70
3792;DHT22;1911;53.768;11.474;2023-09-19T16:06:19;18.60;99.90
3792;DHT22;1911;53.768;11.474;2023-09-19T16:08:47;18.60;99.90
3792;DHT22;1911;53.768;11.474;2023-09-19T16:11:13;18.50;99.90
3792;DHT22;1911;53.768;11.474;2023-09-19T16:13:40;18.50;99.90
3792;DHT22;1911;53.768;11.474;2023-09-19T16:16:11;18.40;94.80
3792;DHT22;1911;53.768;11.474;2023-09-19T16:18:54;18.40;99.90
3792;DHT22;1911;53.768;11.474;2023-09-19T16:21:24;18.30;63.80
3792;DHT22;1911;53.768;11.474;2023-09-19T16:23:51;18.40;1.00
3792;DHT22;1911;53.768;11.474;2023-09-19T16:26:20;18.40;99.90
3792;DHT22;1911;53.768;11.474;2023-09-19T16:28:46;18.40;99.90
3792;DHT22;1911;53.768;11.474;2023-09-19T16:31:12;18.40;99.90
3792;DHT22;1911;53.768;11.474;2023-09-19T16:33:41;18.40;99.90
3792;DHT22;1911;53.768;11.474;2023-09-19T16:36:18;18.40;99.90
3792;DHT22;1911;53.768;11.474;2023-09-19T16:38:45;18.40;99.90
3792;DHT22;1911;53.768;11.474;2023-09-19T16:41:11;18.40;1.00
3792;DHT22;1911;53.768;11.474;2023-09-19T16:43:38;18.40;99.90
3792;DHT22;1911;53.768;11.474;2023-09-19T16:46:06;18.40;1.00
3792;DHT22;1911;53.768;11.474;2023-09-19T16:48:37;18.40;1.00
3792;DHT22;1911;53.768;11.474;2023-09-19T16:51:07;18.30;99.90
3792;DHT22;1911;53.768;11.474;2023-09-19T16:53:35;18.30;99.90
3792;DHT22;1911;53.768;11.474;2023-09-19T16:56:11;18.30;1.00
3792;DHT22;1911;53.768;11.474;2023-09-19T16:58:42;18.30;99.90